Barclay, Illinois
Current Conditions -  °F | °C
As of 9:52 PM on Friday 24 Oct 2014 (Local Time) from KSPI Reporting Station
Clear Clear  
Wind Chill: 61°   Ceiling: Unl
Heat Index: 61°   Visibility: 10mi
Dew Point: 50°   Wind: 5mph
Humidity: 67%   Direction: 180°S
Pressure: 29.98"   Gusts: NA
Location:  39.897°N, 89.5992°W
Report Text: KSPI 250252Z 18004KT 10SM CLR 16/10 A2998 RMK AO2 SLP153 T01610100 53000
Loading
Personal Weather Stations






























Interactive Weather Map
Tropical Storm Tracking
New forecast layout! Learn more

10-Day Weather Forecast

Advertisements
Track Severe Weather on mobile